Terminal Aerodrome Forecast
Issued by NWS

Home | Current Version | Previous Version | Text Only | Print | Product List | Glossary On
Versions: 1 2 3 4 5 6 7 8 9 10 11 12 13 14
000
FTAK31 PANC 041733
TAFAIL
TAF
PAIL 041733Z 0418/0518 07008KT P6SM VCSH BKN060
     FM050000 11010KT P6SM SCT060 BKN100
     FM050900 05007KT P6SM SCT080 BKN120
     FM051600 06014KT P6SM BKN100=

USA.gov is the U.S. government's official web portal to all federal, state and local government web resources and services.